LiveATC.Net - Listen to live air traffic control over the Internet!


ICAO: EHGR  IATA: GLZ   Airport: Gilze-Rijen Air Base
City: Breda
Country: Netherlands   Continent: Europe
EHGR METAR Weather: EHGR 211025Z AUTO 21012KT 180V260 9999 SCT019 BKN024 BKN027 17/13 Q1009 WHT
EHGR Flight Activity (FlightAware)
EHGR Twr/TMA/App
Feed Status: UP   Listeners: 4
Listen right in your browser - requires Flash (in browser, requires Flash)
Click here to listen with your own player (launches your MP3 player)
EHGR Twr/TMA/App Audio Archives
FacilityFrequency
Gilze Rijen Arrival U09 (UHF)373.375
Gilze Rijen TMA D U16 (UHF) 371.525
Gilze Rijen Tower U12 (UHF)369.500

EHGR Mode-S Tracking
EHEH Mode-S Tracking

NOTICE

Unauthorized use prohibited. See LiveATC.net Terms of Service


Find LiveATC Audio Streams


Airport/ARTCC Code

Frequency Search
(e.g., 124.400, 128.75)
Site-wide search
 


Browse LiveATC Feeds
LiveATC Coverage Map
Top 50 LiveATC Feeds
Bad Weather Areas

LiveATC FAQ
Offer a LiveATC Feed
Contact LiveATC.net
Press Inquiries

LiveATC on iPhone
LiveATC on Android

Windows Phone
Windows 8/10

LiveATC Mobile
(Mobile browser)

ATC Audio Archives
Interesting Recordings

LiveATC Forums


Home Page
About LiveATC.net
Make a Donation
LiveATC Store

Terms of Use
Privacy Policy

Canadian Air Freqs

AIRMETs/SIGMETs

FAA Airport Status
Nat'l Airspace Status
Arrival Demand Charts


Server Software By:
Icecast.org
Liquidsoap